createdAt,value
2023-02-19T00:02:28.466Z,97459.41
2023-02-19T00:05:03.309Z,97456.59
2023-02-19T00:07:38.014Z,97449.14
2023-02-19T00:10:12.106Z,97461.84
2023-02-19T00:12:45.757Z,97437.12
2023-02-19T00:15:19.701Z,97448.97
2023-02-19T00:17:53.207Z,97447.28
2023-02-19T00:20:26.907Z,97448.97
2023-02-19T00:23:00.203Z,97444.69
2023-02-19T00:25:33.641Z,97416.73
2023-02-19T00:28:09.575Z,97426.84
2023-02-19T00:30:43.031Z,97419.28
2023-02-19T00:33:17.079Z,97431.92
2023-02-19T00:35:50.630Z,97435.87
2023-02-19T00:38:23.726Z,97418.21
2023-02-19T00:40:57.336Z,97429.17
2023-02-19T00:43:31.314Z,97437.58
2023-02-19T00:46:04.823Z,97414.66
2023-02-19T00:48:38.364Z,97423.84
2023-02-19T00:51:12.192Z,97418.00
2023-02-19T00:53:46.463Z,97417.02
2023-02-19T00:56:19.951Z,97416.87
2023-02-19T00:58:53.528Z,97398.36
2023-02-19T01:01:27.150Z,97391.63
2023-02-19T01:04:00.419Z,97392.21
2023-02-19T01:06:34.830Z,97408.18
2023-02-19T01:09:09.101Z,97401.39
2023-02-19T01:11:42.662Z,97399.64
2023-02-19T01:14:16.564Z,97393.09
2023-02-19T01:16:50.099Z,97394.69
2023-02-19T01:19:23.408Z,97389.48
2023-02-19T01:21:56.942Z,97365.17
2023-02-19T01:24:30.608Z,97369.18
2023-02-19T01:27:03.890Z,97379.86
2023-02-19T01:29:37.238Z,97360.49
2023-02-19T01:32:11.629Z,97387.34
2023-02-19T01:34:45.164Z,97385.67
2023-02-19T01:37:18.702Z,97363.89
2023-02-19T01:39:52.017Z,97382.45
2023-02-19T01:42:25.590Z,97380.25
2023-02-19T01:45:33.444Z,97368.30
2023-02-19T01:48:11.512Z,97366.70
2023-02-19T01:50:48.358Z,97362.81
2023-02-19T01:53:25.366Z,97360.44
2023-02-19T01:56:01.237Z,97356.83
2023-02-19T01:58:37.357Z,97353.45
2023-02-19T02:01:12.266Z,97345.94
2023-02-19T02:03:49.043Z,97333.89
2023-02-19T02:06:25.987Z,97349.45
2023-02-19T02:09:18.359Z,97346.52
2023-02-19T02:11:54.724Z,97358.13
2023-02-19T02:14:30.913Z,97361.56
2023-02-19T02:17:08.086Z,97359.53
2023-02-19T02:19:55.125Z,97354.74
2023-02-19T02:22:30.960Z,97354.07
2023-02-19T02:25:39.519Z,97349.73
2023-02-19T02:28:32.387Z,97350.58
2023-02-19T02:31:09.607Z,97344.03
2023-02-19T02:33:46.014Z,97342.50
2023-02-19T02:36:22.364Z,97341.77
2023-02-19T02:38:57.011Z,97355.25
2023-02-19T02:41:30.950Z,97346.84
2023-02-19T02:44:07.012Z,97339.78
2023-02-19T02:46:43.572Z,97322.94
2023-02-19T02:49:20.172Z,97324.80
2023-02-19T02:51:55.963Z,97309.46
2023-02-19T02:54:48.198Z,97328.42
2023-02-19T02:57:22.185Z,97337.65
2023-02-19T02:59:57.928Z,97324.28
2023-02-19T03:02:33.131Z,97331.09
2023-02-19T03:05:26.576Z,97323.67
2023-02-19T03:08:04.198Z,97324.56
2023-02-19T03:10:40.575Z,97326.02
2023-02-19T03:13:33.782Z,97325.87
2023-02-19T03:16:27.723Z,97330.48
2023-02-19T03:19:21.349Z,97319.33
2023-02-19T03:24:59.460Z,97334.61
2023-02-19T03:27:37.566Z,97315.59
2023-02-19T03:30:16.037Z,97325.67
2023-02-19T03:32:52.578Z,97325.74
2023-02-19T03:35:29.350Z,97327.48
2023-02-19T03:38:07.785Z,97323.33
2023-02-19T03:40:44.941Z,97320.00
2023-02-19T03:43:22.538Z,97315.72
2023-02-19T03:46:01.751Z,97292.70
2023-02-19T03:48:37.425Z,97313.85
2023-02-19T03:51:18.039Z,97305.17
2023-02-19T03:53:56.186Z,97291.53
2023-02-19T03:56:32.798Z,97304.38
2023-02-19T03:59:07.214Z,97310.11
2023-02-19T04:01:43.528Z,97298.23
2023-02-19T04:04:21.056Z,97305.17
2023-02-19T04:06:57.521Z,97294.90
2023-02-19T04:09:35.576Z,97306.62
2023-02-19T04:12:12.208Z,97308.25
2023-02-19T04:14:48.796Z,97278.00
2023-02-19T04:17:24.536Z,97295.63
2023-02-19T04:20:00.351Z,97299.75
2023-02-19T04:22:35.548Z,97301.43
2023-02-19T04:25:10.420Z,97286.47
2023-02-19T04:27:45.195Z,97288.14
2023-02-19T04:30:18.859Z,97305.84
2023-02-19T04:32:52.279Z,97299.81
2023-02-19T04:35:25.366Z,97298.16
2023-02-19T04:37:59.288Z,97291.23
2023-02-19T04:40:32.878Z,97284.75
2023-02-19T04:43:06.225Z,97269.38
2023-02-19T04:45:41.109Z,97286.47
2023-02-19T04:48:15.038Z,97269.54
2023-02-19T04:50:48.429Z,97284.88
2023-02-19T04:53:21.894Z,97283.20
2023-02-19T04:55:55.366Z,97277.05
2023-02-19T04:58:28.666Z,97276.48
2023-02-19T05:01:02.000Z,97275.41
2023-02-19T05:03:35.988Z,97274.61
2023-02-19T05:06:12.058Z,97283.14
2023-02-19T05:08:45.672Z,97278.22
2023-02-19T05:11:19.154Z,97276.54
2023-02-19T05:13:52.592Z,97278.95
2023-02-19T05:16:26.906Z,97264.72
2023-02-19T05:19:00.410Z,97246.32
2023-02-19T05:21:34.028Z,97269.78
2023-02-19T05:24:08.526Z,97264.93
2023-02-19T05:26:44.553Z,97267.34
2023-02-19T05:29:17.107Z,97254.57
2023-02-19T05:31:50.781Z,97252.98
2023-02-19T05:34:24.383Z,97253.26
2023-02-19T05:36:58.982Z,97260.81
2023-02-19T05:39:32.319Z,97255.97
2023-02-19T05:42:08.365Z,97252.58
2023-02-19T05:44:43.035Z,97236.57
2023-02-19T05:47:17.803Z,97250.32
2023-02-19T05:49:51.254Z,97242.44
2023-02-19T05:52:25.134Z,97252.52
2023-02-19T05:54:58.711Z,97238.43
2023-02-19T05:57:32.174Z,97258.05
2023-02-19T06:00:07.692Z,97245.63
2023-02-19T06:02:42.744Z,97243.84
2023-02-19T06:05:17.219Z,97238.70
2023-02-19T06:07:51.493Z,97243.89
2023-02-19T06:10:24.947Z,97238.02
2023-02-19T06:12:58.323Z,97246.81
2023-02-19T06:15:31.731Z,97239.94
2023-02-19T06:18:06.011Z,97232.48
2023-02-19T06:20:39.301Z,97237.61
2023-02-19T06:23:12.663Z,97246.14
2023-02-19T06:25:46.122Z,97234.72
2023-02-19T06:28:19.745Z,97237.14
2023-02-19T06:30:53.504Z,97242.33
2023-02-19T06:33:27.590Z,97222.94
2023-02-19T06:36:02.824Z,97224.14
2023-02-19T06:38:36.332Z,97233.23
2023-02-19T06:41:11.314Z,97237.00
2023-02-19T06:43:44.960Z,97220.28
2023-02-19T06:46:18.603Z,97230.33
2023-02-19T06:48:52.808Z,97213.50
2023-02-19T06:51:29.019Z,97221.77
2023-02-19T06:54:03.311Z,97218.20
2023-02-19T06:56:39.596Z,97214.34
2023-02-19T06:59:17.022Z,97216.08
2023-02-19T07:01:50.763Z,97217.93
2023-02-19T07:04:24.611Z,97207.22
2023-02-19T07:06:59.970Z,97198.95
2023-02-19T07:09:33.693Z,97201.69
2023-02-19T07:12:08.535Z,97191.53
2023-02-19T07:14:42.134Z,97186.55
2023-02-19T07:17:15.762Z,97197.52
2023-02-19T07:19:48.807Z,97183.26
2023-02-19T07:22:23.309Z,97187.89
2023-02-19T07:24:56.956Z,97182.00
2023-02-19T07:27:30.552Z,97187.38
2023-02-19T07:30:03.859Z,97190.25
2023-02-19T07:32:37.323Z,97181.22
2023-02-19T07:35:11.498Z,97180.32
2023-02-19T07:37:44.975Z,97187.72
2023-02-19T07:40:18.774Z,97163.19
2023-02-19T07:42:52.109Z,97187.98
2023-02-19T07:45:25.594Z,97180.45
2023-02-19T07:47:58.960Z,97178.70
2023-02-19T07:50:32.818Z,97170.38
2023-02-19T07:53:06.205Z,97171.98
2023-02-19T07:55:39.705Z,97160.97
2023-02-19T07:58:13.039Z,97168.55
2023-02-19T08:00:46.910Z,97157.48
2023-02-19T08:03:20.480Z,97166.70
2023-02-19T08:05:55.163Z,97167.31
2023-02-19T08:08:48.720Z,97155.70
2023-02-19T08:11:39.651Z,97153.06
2023-02-19T08:14:13.215Z,97152.30
2023-02-19T08:16:52.528Z,97152.69
2023-02-19T08:19:26.350Z,97162.16
2023-02-19T08:22:00.039Z,97155.23
2023-02-19T08:24:34.033Z,97150.25
2023-02-19T08:27:07.578Z,97161.17
2023-02-19T08:29:41.075Z,97154.71
2023-02-19T08:32:14.699Z,97149.33
2023-02-19T08:34:47.992Z,97151.95
2023-02-19T08:37:21.359Z,97157.19
2023-02-19T08:39:54.797Z,97155.34
2023-02-19T08:42:29.433Z,97149.36
2023-02-19T08:45:02.765Z,97137.06
2023-02-19T08:47:38.337Z,97138.89
2023-02-19T08:50:12.745Z,97144.40
2023-02-19T08:52:46.083Z,97141.90
2023-02-19T08:55:19.934Z,97145.39
2023-02-19T08:57:53.605Z,97136.34
2023-02-19T09:00:27.526Z,97134.09
2023-02-19T09:03:01.778Z,97136.23
2023-02-19T09:05:35.293Z,97137.97
2023-02-19T09:08:08.522Z,97129.69
2023-02-19T09:10:42.122Z,97126.38
2023-02-19T09:13:17.990Z,97124.00
2023-02-19T09:15:51.733Z,97099.18
2023-02-19T09:18:25.749Z,97112.33
2023-02-19T09:21:02.772Z,97123.06
2023-02-19T09:23:37.550Z,97117.21
2023-02-19T09:26:13.662Z,97115.38
2023-02-19T09:28:47.891Z,97105.20
2023-02-19T09:31:21.364Z,97116.14
2023-02-19T09:33:54.853Z,97116.78
2023-02-19T09:36:28.287Z,97105.97
2023-02-19T09:39:02.125Z,97104.48
2023-02-19T09:41:38.405Z,97098.67
2023-02-19T09:44:14.675Z,97095.70
2023-02-19T09:46:50.467Z,97099.23
2023-02-19T09:49:26.973Z,97083.49
2023-02-19T09:52:04.314Z,97095.02
2023-02-19T09:54:39.632Z,97097.70
2023-02-19T09:57:16.176Z,97081.46
2023-02-19T09:59:52.807Z,97097.41
2023-02-19T10:02:27.749Z,97088.66
2023-02-19T10:05:02.772Z,97065.50
2023-02-19T10:07:40.580Z,97079.03
2023-02-19T10:10:34.719Z,97093.09
2023-02-19T10:13:21.828Z,97080.00
2023-02-19T10:15:58.883Z,97079.75
2023-02-19T10:18:35.496Z,97083.09
2023-02-19T10:21:10.055Z,97058.94
2023-02-19T10:23:45.415Z,97080.86
2023-02-19T10:26:18.943Z,97072.93
2023-02-19T10:28:54.305Z,97048.12
2023-02-19T10:31:28.215Z,97077.72
2023-02-19T10:34:03.647Z,97078.98
2023-02-19T10:36:39.779Z,97086.55
2023-02-19T10:42:22.734Z,97077.30
2023-02-19T10:45:01.418Z,97064.11
2023-02-19T10:47:36.102Z,97073.85
2023-02-19T10:50:19.780Z,97070.28
2023-02-19T10:52:57.335Z,97075.77
2023-02-19T10:55:37.732Z,97084.42
2023-02-19T10:58:28.726Z,97064.16
2023-02-19T11:01:15.134Z,97084.26
2023-02-19T11:03:49.943Z,97076.84
2023-02-19T11:06:26.009Z,97075.77
2023-02-19T11:09:02.199Z,97068.20
2023-02-19T11:11:38.442Z,97061.68
2023-02-19T11:14:19.849Z,97066.44
2023-02-19T11:16:56.954Z,97057.86
2023-02-19T11:19:37.975Z,97063.03
2023-02-19T11:22:31.906Z,97054.85
2023-02-19T11:25:09.906Z,97038.13
2023-02-19T11:27:58.621Z,97046.47
2023-02-19T11:30:43.376Z,97038.67
2023-02-19T11:33:28.568Z,97044.00
2023-02-19T11:36:20.382Z,97041.95
2023-02-19T11:38:54.098Z,97023.28
2023-02-19T11:41:54.513Z,97036.73
2023-02-19T11:44:34.347Z,97039.17
2023-02-19T11:47:18.698Z,97041.63
2023-02-19T11:49:55.070Z,97044.18
2023-02-19T11:52:32.634Z,97052.54
2023-02-19T11:55:11.458Z,97044.91
2023-02-19T11:57:48.817Z,97038.08
2023-02-19T12:00:28.456Z,97044.70
2023-02-19T12:03:31.226Z,97028.34
2023-02-19T12:06:16.328Z,97051.44
2023-02-19T12:09:35.623Z,97046.17
2023-02-19T12:12:17.326Z,97053.38
2023-02-19T12:15:45.706Z,97047.31
2023-02-19T12:18:33.968Z,97040.36
2023-02-19T12:21:16.085Z,97040.36
2023-02-19T12:24:04.503Z,97032.94
2023-02-19T12:26:41.445Z,97047.27
2023-02-19T12:29:22.881Z,97052.57
2023-02-19T12:32:31.661Z,97033.45
2023-02-19T12:35:30.916Z,97042.66
2023-02-19T12:38:10.904Z,97041.38
2023-02-19T12:40:51.713Z,97042.90
2023-02-19T12:43:26.362Z,97044.52
2023-02-19T12:46:03.069Z,97029.92
2023-02-19T12:48:39.905Z,97040.09
2023-02-19T12:51:16.286Z,97036.66
2023-02-19T12:53:52.249Z,97034.96
2023-02-19T12:56:28.748Z,97036.53
2023-02-19T12:59:05.246Z,97042.50
2023-02-19T13:01:42.612Z,97049.42
2023-02-19T13:04:23.398Z,97035.98
2023-02-19T13:07:00.445Z,97038.41
2023-02-19T13:09:37.450Z,97047.59
2023-02-19T13:12:15.498Z,97038.17
2023-02-19T13:14:52.473Z,97050.94
2023-02-19T13:17:30.054Z,97024.62
2023-02-19T13:20:03.548Z,97034.70
2023-02-19T13:22:58.191Z,97043.09
2023-02-19T13:25:35.352Z,97051.57
2023-02-19T13:28:24.467Z,97041.34
2023-02-19T13:31:09.416Z,97031.92
2023-02-19T13:33:50.977Z,97059.98
2023-02-19T13:36:27.427Z,97044.88
2023-02-19T13:39:03.870Z,97034.80
2023-02-19T13:41:41.070Z,97043.31
2023-02-19T13:44:20.885Z,97051.65
2023-02-19T13:46:57.057Z,97048.34
2023-02-19T13:49:50.612Z,97040.72
2023-02-19T13:52:41.812Z,97049.24
2023-02-19T13:55:51.602Z,97045.09
2023-02-19T13:59:00.578Z,97044.11
2023-02-19T14:02:18.991Z,97038.00
2023-02-19T14:04:59.489Z,97039.51
2023-02-19T14:07:55.386Z,97042.05
2023-02-19T14:11:06.100Z,97047.09
2023-02-19T14:14:28.495Z,97036.30
2023-02-19T14:17:08.620Z,97031.71
2023-02-19T14:19:54.769Z,97007.09
2023-02-19T14:22:51.480Z,97012.89
2023-02-19T14:25:47.015Z,97010.25
2023-02-19T14:28:44.752Z,97021.94
2023-02-19T14:31:31.162Z,97020.16
2023-02-19T14:34:07.561Z,97020.06
2023-02-19T14:36:49.231Z,97020.20
2023-02-19T14:39:24.986Z,97019.30
2023-02-19T14:42:01.564Z,97030.27
2023-02-19T14:44:40.168Z,97022.96
2023-02-19T14:47:18.892Z,97026.22
2023-02-19T14:49:56.644Z,97011.81
2023-02-19T14:52:33.185Z,97008.42
2023-02-19T14:55:09.952Z,97010.16
2023-02-19T14:57:46.502Z,97005.17
2023-02-19T15:00:28.860Z,97002.62
2023-02-19T15:03:02.928Z,97009.23
2023-02-19T15:05:38.943Z,97012.70
2023-02-19T15:08:15.472Z,97007.71
2023-02-19T15:10:49.533Z,97022.20
2023-02-19T15:13:25.811Z,97008.69
2023-02-19T15:16:00.278Z,97004.41
2023-02-19T15:18:36.874Z,96999.28
2023-02-19T15:21:15.582Z,96989.97
2023-02-19T15:23:49.564Z,96993.27
2023-02-19T15:26:25.696Z,96995.72
2023-02-19T15:29:04.874Z,97002.45
2023-02-19T15:31:40.299Z,96987.38
2023-02-19T15:34:19.478Z,97004.14
2023-02-19T15:36:55.471Z,96997.37
2023-02-19T15:39:32.796Z,96999.99
2023-02-19T15:42:09.390Z,96983.05
2023-02-19T15:44:46.849Z,96998.21
2023-02-19T15:47:25.018Z,97000.67
2023-02-19T15:50:02.548Z,96992.95
2023-02-19T15:52:38.529Z,96988.80
2023-02-19T15:55:23.459Z,96992.24
2023-02-19T15:57:59.655Z,96998.70
2023-02-19T16:00:37.630Z,96995.27
2023-02-19T16:03:16.714Z,96993.54
2023-02-19T16:06:00.480Z,96992.16
2023-02-19T16:08:36.013Z,96992.24
2023-02-19T16:11:22.729Z,96990.41
2023-02-19T16:14:15.438Z,96991.08
2023-02-19T16:16:51.406Z,96988.36
2023-02-19T16:19:28.599Z,96968.25
2023-02-19T16:22:02.410Z,96983.45
2023-02-19T16:24:38.530Z,96989.21
2023-02-19T16:27:12.433Z,97002.19
2023-02-19T16:32:29.798Z,96992.55
2023-02-19T16:35:03.456Z,96989.70
2023-02-19T16:37:40.842Z,96983.81
2023-02-19T16:40:56.609Z,96993.05
2023-02-19T16:43:34.343Z,96973.55
2023-02-19T16:46:11.723Z,96976.91
2023-02-19T16:48:45.590Z,96972.63
2023-02-19T16:51:23.430Z,96980.16
2023-02-19T16:54:00.145Z,96980.20
2023-02-19T16:56:33.815Z,96966.83
2023-02-19T16:59:08.180Z,96975.16
2023-02-19T17:01:42.285Z,96964.29
2023-02-19T17:04:16.458Z,96975.16
2023-02-19T17:06:50.178Z,96976.91
2023-02-19T17:09:23.919Z,96978.52
2023-02-19T17:11:57.630Z,96975.92
2023-02-19T17:14:31.211Z,96981.01
2023-02-19T17:17:05.390Z,96972.53
2023-02-19T17:19:40.285Z,96974.31
2023-02-19T17:22:16.449Z,96970.94
2023-02-19T17:24:50.041Z,96962.51
2023-02-19T17:27:23.762Z,96972.45
2023-02-19T17:29:57.215Z,96978.52
2023-02-19T17:32:30.482Z,96974.95
2023-02-19T17:35:03.976Z,96973.21
2023-02-19T17:37:37.594Z,96970.80
2023-02-19T17:40:31.869Z,96964.15
2023-02-19T17:42:56.489Z,96960.58
2023-02-19T17:45:30.294Z,96963.05
2023-02-19T17:48:04.138Z,96961.48
2023-02-19T17:50:38.946Z,96958.19
2023-02-19T17:53:12.617Z,96954.66
2023-02-19T17:55:46.345Z,96953.91
2023-02-19T17:58:19.912Z,96957.16
2023-02-19T18:00:53.925Z,96952.03
2023-02-19T18:03:27.819Z,96954.57
2023-02-19T18:06:01.548Z,96960.63
2023-02-19T18:08:35.114Z,96960.58
2023-02-19T18:11:09.489Z,96951.23
2023-02-19T18:13:43.015Z,96959.70
2023-02-19T18:16:17.387Z,96947.00
2023-02-19T18:18:51.154Z,96952.88
2023-02-19T18:21:26.007Z,96950.34
2023-02-19T18:23:59.546Z,96951.18
2023-02-19T18:26:33.773Z,96957.88
2023-02-19T18:29:07.999Z,96944.36
2023-02-19T18:31:41.833Z,96946.02
2023-02-19T18:34:20.247Z,96940.89
2023-02-19T18:36:53.742Z,96951.94
2023-02-19T18:39:27.137Z,96943.48
2023-02-19T18:42:01.221Z,96944.36
2023-02-19T18:44:34.668Z,96951.86
2023-02-19T18:47:08.751Z,96944.23
2023-02-19T18:49:43.772Z,96944.41
2023-02-19T18:52:19.428Z,96946.09
2023-02-19T18:54:53.596Z,96948.64
2023-02-19T18:57:27.693Z,96941.06
2023-02-19T19:00:01.095Z,96947.00
2023-02-19T19:02:48.405Z,96941.96
2023-02-19T19:05:11.891Z,96943.65
2023-02-19T19:07:45.490Z,96947.00
2023-02-19T19:10:20.279Z,96945.22
2023-02-19T19:12:54.704Z,96943.65
2023-02-19T19:15:29.861Z,96942.04
2023-02-19T19:18:03.650Z,96952.13
2023-02-19T19:20:37.236Z,96944.63
2023-02-19T19:23:10.728Z,96944.84
2023-02-19T19:25:44.195Z,96941.54
2023-02-19T19:28:17.759Z,96940.61
2023-02-19T19:30:51.228Z,96936.37
2023-02-19T19:33:27.978Z,96938.02
2023-02-19T19:36:00.874Z,96938.02
2023-02-19T19:38:34.548Z,96942.34
2023-02-19T19:41:08.729Z,96942.60
2023-02-19T19:43:41.760Z,96946.25
2023-02-19T19:46:19.330Z,96933.75
2023-02-19T19:48:54.096Z,96942.23
2023-02-19T19:51:33.340Z,96939.86
2023-02-19T19:54:10.846Z,96939.91
2023-02-19T19:56:45.614Z,96939.91
2023-02-19T19:59:19.856Z,96937.32
2023-02-19T20:01:57.229Z,96945.58
2023-02-19T20:04:31.823Z,96940.57
2023-02-19T20:07:05.550Z,96938.94
2023-02-19T20:09:38.971Z,96941.39
2023-02-19T20:12:13.162Z,96941.25
2023-02-19T20:14:48.053Z,96945.40
2023-02-19T20:17:24.954Z,96942.02
2023-02-19T20:19:58.638Z,96937.82
2023-02-19T20:22:32.261Z,96945.48
2023-02-19T20:25:06.357Z,96942.09
2023-02-19T20:27:40.130Z,96941.12
2023-02-19T20:30:17.787Z,96935.92
2023-02-19T20:32:51.735Z,96940.11
2023-02-19T20:35:28.081Z,96935.73
2023-02-19T20:38:01.680Z,96930.48
2023-02-19T20:40:36.329Z,96943.15
2023-02-19T20:43:09.991Z,96932.02
2023-02-19T20:45:45.730Z,96929.33
2023-02-19T20:48:20.086Z,96930.85
2023-02-19T20:50:55.919Z,96929.92
2023-02-19T20:53:30.188Z,96930.85
2023-02-19T20:56:03.746Z,96927.16
2023-02-19T20:58:37.524Z,96933.89
2023-02-19T21:01:11.952Z,96921.99
2023-02-19T21:03:45.499Z,96927.92
2023-02-19T21:06:18.831Z,96921.90
2023-02-19T21:08:52.610Z,96925.24
2023-02-19T21:11:26.389Z,96920.03
2023-02-19T21:14:00.083Z,96921.67
2023-02-19T21:16:34.629Z,96916.38
2023-02-19T21:19:08.107Z,96921.36
2023-02-19T21:21:41.680Z,96917.13
2023-02-19T21:24:16.669Z,96916.96
2023-02-19T21:26:52.471Z,96927.07
2023-02-19T21:29:26.179Z,96923.73
2023-02-19T21:32:00.190Z,96934.73
2023-02-19T21:34:33.619Z,96933.98
2023-02-19T21:37:07.251Z,96934.06
2023-02-19T21:39:42.408Z,96929.17
2023-02-19T21:42:16.174Z,96926.86
2023-02-19T21:44:49.604Z,96926.98
2023-02-19T21:47:22.873Z,96929.52
2023-02-19T21:49:56.667Z,96933.00
2023-02-19T21:52:31.267Z,96935.72
2023-02-19T21:55:04.527Z,96930.77
2023-02-19T21:57:37.893Z,96936.56
2023-02-19T22:00:13.331Z,96938.47
2023-02-19T22:02:46.749Z,96936.07
2023-02-19T22:05:20.201Z,96939.59
2023-02-19T22:07:54.009Z,96933.74
2023-02-19T22:10:27.531Z,96935.57
2023-02-19T22:13:01.035Z,96930.61
2023-02-19T22:15:34.613Z,96936.64
2023-02-19T22:18:08.544Z,96938.46
2023-02-19T22:20:42.272Z,96933.38
2023-02-19T22:23:15.736Z,96935.16
2023-02-19T22:25:49.282Z,96929.94
2023-02-19T22:28:23.168Z,96932.18
2023-02-19T22:30:56.621Z,96932.02
2023-02-19T22:33:30.131Z,96930.19
2023-02-19T22:36:04.086Z,96927.59
2023-02-19T22:38:37.549Z,96929.33
2023-02-19T22:41:11.229Z,96921.63
2023-02-19T22:43:44.641Z,96929.25
2023-02-19T22:46:20.615Z,96929.42
2023-02-19T22:48:54.253Z,96919.47
2023-02-19T22:51:28.044Z,96934.86
2023-02-19T22:54:02.359Z,96931.67
2023-02-19T22:56:36.179Z,96927.73
2023-02-19T22:59:09.728Z,96926.22
2023-02-19T23:01:43.040Z,96923.67
2023-02-19T23:04:16.783Z,96928.77
2023-02-19T23:06:50.674Z,96932.23
2023-02-19T23:09:26.507Z,96933.08
2023-02-19T23:12:05.969Z,96938.25
2023-02-19T23:14:39.459Z,96935.63
2023-02-19T23:17:13.285Z,96934.69
2023-02-19T23:19:47.324Z,96941.21
2023-02-19T23:22:20.909Z,96940.23
2023-02-19T23:24:54.604Z,96945.33
2023-02-19T23:27:28.683Z,96941.17
2023-02-19T23:30:02.029Z,96949.64
2023-02-19T23:32:35.485Z,96950.58
2023-02-19T23:35:09.382Z,96951.50
2023-02-19T23:37:42.912Z,96953.30
2023-02-19T23:40:17.303Z,96943.17
2023-02-19T23:42:52.283Z,96948.34
2023-02-19T23:45:25.821Z,96944.14
2023-02-19T23:47:59.281Z,96947.48
2023-02-19T23:50:32.845Z,96947.48
2023-02-19T23:53:06.712Z,96944.86
2023-02-19T23:55:41.707Z,96954.10
2023-02-19T23:58:15.479Z,96952.31
